Time;durP1;ratioP1;P1;durP2;ratioP2;P2;SDS_P1;SDS_P2;PMS_P1;PMS_P2;Temp;Humidity;BMP_temperature;BMP_pressure;BME280_temperature;BME280_humidity;BME280_pressure;Samples;Min_cycle;Max_cycle;Signal;HPM_P1;HPM_P2
2021/04/13 00:01:28;;;;;;;9.27;8.40;;;0.40;99.90;;;;;;5011799;28;20221;-64
2021/04/13 00:04:14;;;;;;;11.05;10.05;;;0.50;99.90;;;;;;5012025;28;20214;-64
2021/04/13 00:06:52;;;;;;;11.05;10.15;;;0.40;99.90;;;;;;5011619;28;20170;-63
2021/04/13 00:09:29;;;;;;;10.15;8.68;;;0.40;99.90;;;;;;5011527;28;20192;-65
2021/04/13 00:12:03;;;;;;;9.10;8.32;;;0.40;99.90;;;;;;5011781;28;20182;-66
2021/04/13 00:14:36;;;;;;;9.93;9.00;;;0.40;99.90;;;;;;5011809;28;20170;-63
2021/04/13 00:17:07;;;;;;;8.68;7.97;;;0.40;99.90;;;;;;5010228;28;20256;-63
2021/04/13 00:19:50;;;;;;;9.98;8.98;;;0.30;99.90;;;;;;5011227;28;20190;-64
2021/04/13 00:22:17;;;;;;;8.15;7.55;;;0.30;99.90;;;;;;5011651;28;20171;-63
2021/04/13 00:24:44;;;;;;;8.90;8.10;;;0.30;99.90;;;;;;5011689;28;20197;-66
2021/04/13 00:27:13;;;;;;;11.25;10.02;;;0.30;99.90;;;;;;5011551;28;20713;-63
2021/04/13 00:29:39;;;;;;;9.38;8.35;;;0.20;99.90;;;;;;5011493;28;20194;-63
2021/04/13 00:32:06;;;;;;;10.83;9.57;;;0.00;99.90;;;;;;5011756;28;20575;-65
2021/04/13 00:34:52;;;;;;;9.95;9.15;;;0.00;99.90;;;;;;5014893;28;20444;-63
2021/04/13 00:37:25;;;;;;;8.25;7.60;;;0.10;99.90;;;;;;5015226;28;20198;-65
2021/04/13 00:39:56;;;;;;;11.50;10.45;;;0.00;99.90;;;;;;5014837;28;20473;-63
2021/04/13 00:42:28;;;;;;;9.07;8.38;;;-0.10;99.90;;;;;;5015357;28;20183;-64
2021/04/13 00:45:00;;;;;;;9.88;8.88;;;-0.10;99.90;;;;;;5015441;28;20170;-63
2021/04/13 00:47:29;;;;;;;9.32;8.55;;;-0.10;99.90;;;;;;5015144;28;20171;-63
2021/04/13 00:49:59;;;;;;;10.20;9.23;;;-0.10;99.90;;;;;;5014588;28;20308;-62
2021/04/13 00:52:51;;;;;;;9.45;8.55;;;-0.10;99.90;;;;;;5015051;28;20193;-63
2021/04/13 00:55:20;;;;;;;10.68;9.68;;;-0.10;99.90;;;;;;5015001;28;20180;-62
2021/04/13 00:58:07;;;;;;;11.93;9.68;;;-0.20;99.90;;;;;;5014899;28;20200;-63
2021/04/13 01:00:40;;;;;;;9.18;8.38;;;-0.20;99.90;;;;;;5011183;28;20198;-65
2021/04/13 01:03:06;;;;;;;11.40;9.70;;;-0.30;99.90;;;;;;5014984;28;20249;-64
2021/04/13 01:05:39;;;;;;;9.73;8.90;;;-0.40;99.90;;;;;;5014816;28;20174;-65
2021/04/13 01:08:22;;;;;;;10.35;9.45;;;-0.30;99.90;;;;;;5014772;28;20174;-65
2021/04/13 01:10:49;;;;;;;10.20;9.27;;;-0.40;99.90;;;;;;5014773;28;20193;-64
2021/04/13 01:13:54;;;;;;;11.20;10.00;;;-0.40;99.90;;;;;;5014769;28;20513;-65
2021/04/13 01:16:24;;;;;;;10.98;9.88;;;-0.50;99.90;;;;;;5013814;28;20192;-64
2021/04/13 01:18:57;;;;;;;11.60;10.57;;;-0.50;99.90;;;;;;5014191;28;20582;-65
2021/04/13 01:21:28;;;;;;;13.00;11.23;;;-0.50;99.90;;;;;;5014604;28;20173;-65
2021/04/13 01:24:07;;;;;;;10.95;10.02;;;-0.50;99.90;;;;;;5014374;28;20173;-64
2021/04/13 01:26:35;;;;;;;11.57;10.48;;;-0.50;99.90;;;;;;5014589;28;20178;-64
2021/04/13 01:29:01;;;;;;;11.45;10.15;;;-0.50;99.90;;;;;;5013945;28;20275;-64
2021/04/13 01:31:52;;;;;;;11.02;10.00;;;-0.60;99.90;;;;;;5014314;28;20223;-65
2021/04/13 01:34:38;;;;;;;11.55;10.35;;;-0.50;99.90;;;;;;5014191;28;20179;-64
2021/04/13 01:37:09;;;;;;;12.45;11.05;;;-0.50;99.90;;;;;;5014404;28;20554;-64
2021/04/13 01:39:45;;;;;;;11.68;10.43;;;-0.50;99.90;;;;;;5014071;28;20479;-64
2021/04/13 01:42:12;;;;;;;13.00;11.65;;;-0.60;99.90;;;;;;5014237;28;20184;-64
2021/04/13 01:44:41;;;;;;;11.85;10.30;;;-0.70;99.90;;;;;;5013882;28;20541;-64
2021/04/13 01:47:09;;;;;;;10.45;9.63;;;-0.70;99.90;;;;;;5014140;28;20169;-64
2021/04/13 01:49:46;;;;;;;14.00;9.82;;;-0.80;99.90;;;;;;5013577;28;20189;-65
2021/04/13 01:52:18;;;;;;;12.15;10.85;;;-0.90;99.90;;;;;;5014023;28;20553;-65
2021/04/13 01:54:44;;;;;;;10.75;9.68;;;-0.90;99.90;;;;;;5014064;28;20169;-64
2021/04/13 01:57:17;;;;;;;10.77;9.73;;;-0.80;99.90;;;;;;5013743;28;20723;-64
2021/04/13 01:59:51;;;;;;;14.15;12.80;;;-0.80;99.90;;;;;;5013497;28;20232;-64
2021/04/13 02:02:28;;;;;;;13.70;10.20;;;-0.80;99.90;;;;;;5014015;28;20168;-64
2021/04/13 02:04:57;;;;;;;11.65;10.32;;;-0.80;99.90;;;;;;5013821;28;20231;-64
2021/04/13 02:07:40;;;;;;;11.40;10.05;;;-0.80;99.90;;;;;;5013732;28;20169;-64
2021/04/13 02:10:25;;;;;;;12.00;10.82;;;-0.90;99.90;;;;;;5013408;28;20201;-64
2021/04/13 02:12:55;;;;;;;11.68;10.48;;;-0.90;99.90;;;;;;5013868;28;20169;-64
2021/04/13 02:15:45;;;;;;;12.50;11.38;;;-1.00;99.90;;;;;;5013693;28;20383;-64
2021/04/13 02:18:29;;;;;;;12.88;11.57;;;-1.00;99.90;;;;;;5013580;28;20550;-64
2021/04/13 02:20:55;;;;;;;12.93;11.18;;;-1.00;99.90;;;;;;5013591;28;20178;-62
2021/04/13 02:23:25;;;;;;;11.07;9.95;;;-1.10;99.90;;;;;;5013539;28;20646;-64
2021/04/13 02:25:51;;;;;;;12.23;11.07;;;-1.10;99.90;;;;;;5013417;28;20173;-64
2021/04/13 02:28:18;;;;;;;11.35;10.15;;;-1.10;99.90;;;;;;5012957;28;20187;-64
2021/04/13 02:30:46;;;;;;;11.57;10.52;;;-1.20;99.90;;;;;;5013228;28;20197;-64
2021/04/13 02:33:35;;;;;;;14.85;13.32;;;-1.20;99.90;;;;;;5013542;28;20279;-64
2021/04/13 02:36:15;;;;;;;12.05;10.93;;;-1.30;99.90;;;;;;5013084;28;20169;-64
2021/04/13 02:38:47;;;;;;;11.02;9.63;;;-1.10;99.90;;;;;;5012752;28;20224;-64
2021/04/13 02:41:22;;;;;;;14.23;12.52;;;-1.20;99.90;;;;;;5012973;28;20189;-64
2021/04/13 02:43:52;;;;;;;11.80;9.80;;;-1.20;99.90;;;;;;5013328;28;20169;-64
2021/04/13 02:46:31;;;;;;;15.65;13.13;;;-1.30;99.90;;;;;;5013107;28;20172;-64
2021/04/13 02:49:07;;;;;;;14.23;12.73;;;-1.30;99.90;;;;;;5012693;28;20193;-64
2021/04/13 02:51:36;;;;;;;12.68;11.45;;;-1.30;99.90;;;;;;5013161;28;20181;-64
2021/04/13 02:54:05;;;;;;;12.95;10.55;;;-1.30;99.90;;;;;;5012879;28;20692;-64
2021/04/13 02:56:40;;;;;;;15.25;13.65;;;-1.40;99.90;;;;;;5012358;28;20667;-64
2021/04/13 02:59:12;;;;;;;12.20;11.00;;;-1.30;99.90;;;;;;5012504;28;20282;-64
2021/04/13 03:01:54;;;;;;;17.20;14.82;;;-1.30;99.90;;;;;;5012758;28;20223;-64
2021/04/13 03:04:21;;;;;;;14.18;12.52;;;-1.30;99.90;;;;;;5012966;28;20165;-64
2021/04/13 03:06:53;;;;;;;14.10;12.75;;;-1.40;99.90;;;;;;5012641;28;20175;-64
2021/04/13 03:09:22;;;;;;;16.73;12.60;;;-1.30;99.90;;;;;;5012401;28;20200;-64
2021/04/13 03:11:55;;;;;;;13.50;12.18;;;-1.40;99.90;;;;;;5012543;28;20173;-64
2021/04/13 03:14:21;;;;;;;15.20;13.40;;;-1.40;99.90;;;;;;5012573;28;20191;-64
2021/04/13 03:16:50;;;;;;;14.93;13.15;;;-1.30;99.90;;;;;;5012674;28;20242;-62
2021/04/13 03:19:20;;;;;;;17.13;12.30;;;-1.20;99.90;;;;;;5012192;28;20272;-64
2021/04/13 03:21:52;;;;;;;18.85;12.63;;;-1.20;99.90;;;;;;5012408;28;20169;-64
2021/04/13 03:24:28;;;;;;;16.40;12.18;;;-1.10;99.90;;;;;;5012554;28;20235;-64
2021/04/13 03:26:58;;;;;;;17.73;13.82;;;-1.10;99.90;;;;;;5012616;28;20180;-64
2021/04/13 03:29:55;;;;;;;16.13;13.07;;;-1.10;99.90;;;;;;5011988;28;20189;-64
2021/04/13 03:32:25;;;;;;;19.20;13.40;;;-1.10;99.90;;;;;;5004052;28;20783;-64
2021/04/13 03:34:51;;;;;;;21.20;15.32;;;-1.00;99.90;;;;;;5012219;28;20546;-64
2021/04/13 03:37:17;;;;;;;15.10;12.87;;;-0.90;99.90;;;;;;5012175;28;20196;-64
2021/04/13 03:39:45;;;;;;;16.95;12.38;;;-0.40;99.90;;;;;;5012135;28;20185;-64
2021/04/13 03:42:21;;;;;;;21.98;15.73;;;-0.70;99.90;;;;;;5012177;28;20258;-64
2021/04/13 03:44:49;;;;;;;20.95;15.25;;;-0.70;99.90;;;;;;5012249;28;20690;-64
2021/04/13 03:47:19;;;;;;;17.80;14.45;;;-0.60;99.90;;;;;;5012091;28;20215;-64
2021/04/13 03:49:46;;;;;;;18.45;13.00;;;-0.70;99.90;;;;;;5011511;28;20236;-64
2021/04/13 03:52:31;;;;;;;14.57;13.02;;;-0.60;99.90;;;;;;5012034;28;20181;-64
2021/04/13 03:54:57;;;;;;;20.25;14.13;;;-0.70;99.90;;;;;;5012430;28;20236;-64
2021/04/13 03:57:28;;;;;;;18.10;12.90;;;-0.60;99.90;;;;;;5012051;28;20268;-64
2021/04/13 03:59:56;;;;;;;14.52;12.98;;;-0.70;99.90;;;;;;5011569;28;20451;-65
2021/04/13 04:02:22;;;;;;;18.63;12.80;;;-0.70;99.90;;;;;;5011989;28;20184;-63
2021/04/13 04:04:47;;;;;;;16.80;13.40;;;-0.70;99.90;;;;;;5012036;28;20169;-64
2021/04/13 04:07:36;;;;;;;15.97;12.27;;;-0.70;99.90;;;;;;5012021;28;20173;-64
2021/04/13 04:10:40;;;;;;;14.35;12.13;;;-0.60;99.90;;;;;;5015596;28;20196;-64
2021/04/13 04:13:29;;;;;;;16.75;13.05;;;-0.60;99.90;;;;;;5016035;28;20177;-64
2021/04/13 04:16:11;;;;;;;14.27;12.27;;;-0.70;99.90;;;;;;5008737;28;20185;-64
2021/04/13 04:18:49;;;;;;;22.63;12.50;;;-0.60;99.90;;;;;;5015180;28;20681;-64
2021/04/13 04:21:38;;;;;;;14.90;12.65;;;-0.70;99.90;;;;;;5015742;28;20248;-64
2021/04/13 04:24:17;;;;;;;16.15;12.65;;;-0.70;99.90;;;;;;5015887;28;20239;-64
2021/04/13 04:26:51;;;;;;;17.33;13.52;;;-0.70;99.90;;;;;;5015785;28;20205;-64
2021/04/13 04:29:29;;;;;;;16.15;11.73;;;-0.80;99.90;;;;;;5015187;28;20207;-64
2021/04/13 04:31:55;;;;;;;17.92;13.00;;;-0.80;99.90;;;;;;5015698;28;20585;-64
2021/04/13 04:34:20;;;;;;;15.52;13.07;;;-0.80;99.90;;;;;;5015509;28;20595;-65
2021/04/13 04:36:47;;;;;;;15.73;12.03;;;-0.70;99.90;;;;;;5015503;28;20256;-65
2021/04/13 04:39:30;;;;;;;14.60;12.35;;;-0.70;99.90;;;;;;5014978;28;20209;-64
2021/04/13 04:42:28;;;;;;;15.65;12.98;;;-0.70;99.90;;;;;;5015286;28;20173;-64
2021/04/13 04:45:12;;;;;;;18.75;12.90;;;-0.70;99.90;;;;;;5015274;28;20165;-64
2021/04/13 04:47:38;;;;;;;14.55;12.38;;;-0.70;99.90;;;;;;5015113;28;20550;-65
2021/04/13 04:50:10;;;;;;;16.45;12.73;;;-0.70;99.90;;;;;;5014736;28;20610;-64
2021/04/13 04:52:35;;;;;;;16.90;12.65;;;-0.80;99.90;;;;;;5015398;28;20793;-64
2021/04/13 04:55:01;;;;;;;13.53;11.87;;;-0.80;99.90;;;;;;5015139;28;20259;-64
2021/04/13 04:57:27;;;;;;;21.63;14.10;;;-0.70;99.90;;;;;;5014938;28;20232;-64
2021/04/13 04:59:54;;;;;;;19.52;12.77;;;-0.60;99.90;;;;;;5014675;28;20470;-64
2021/04/13 05:02:19;;;;;;;15.75;12.13;;;-0.50;99.90;;;;;;5014906;28;20168;-64
2021/04/13 05:04:46;;;;;;;14.17;12.17;;;-0.50;99.90;;;;;;5014865;28;20243;-64
2021/04/13 05:07:11;;;;;;;15.77;12.93;;;-0.40;99.90;;;;;;5014911;28;20212;-64
2021/04/13 05:09:37;;;;;;;15.27;11.90;;;-0.50;99.90;;;;;;5014556;28;20246;-64
2021/04/13 05:12:04;;;;;;;19.43;12.70;;;-0.50;99.90;;;;;;5014792;28;20165;-64
2021/04/13 05:14:30;;;;;;;17.98;13.60;;;-0.50;99.90;;;;;;5014793;28;20709;-64
2021/04/13 05:16:55;;;;;;;17.67;12.00;;;-0.40;99.90;;;;;;5014604;28;20177;-64
2021/04/13 05:19:21;;;;;;;16.30;12.23;;;-0.40;99.90;;;;;;5013725;28;20735;-65
2021/04/13 05:21:48;;;;;;;15.63;10.80;;;-0.30;99.90;;;;;;5014623;28;20161;-64
2021/04/13 05:24:13;;;;;;;17.02;12.02;;;-0.20;99.90;;;;;;5014573;28;20169;-65
2021/04/13 05:26:39;;;;;;;19.77;14.60;;;-0.20;99.90;;;;;;5014489;28;20176;-64
2021/04/13 05:29:07;;;;;;;14.63;13.07;;;-0.20;99.90;;;;;;5014151;28;20189;-65
2021/04/13 05:31:33;;;;;;;17.23;13.98;;;-0.20;99.90;;;;;;5014362;28;20188;-64
2021/04/13 05:33:58;;;;;;;14.20;12.70;;;-0.10;99.90;;;;;;5014334;28;20547;-64
2021/04/13 05:36:24;;;;;;;13.93;12.47;;;-0.20;99.90;;;;;;5014391;28;20176;-65
2021/04/13 05:38:50;;;;;;;18.80;13.53;;;-0.20;99.90;;;;;;5013820;28;20287;-64
2021/04/13 05:41:16;;;;;;;17.13;13.60;;;-0.10;99.90;;;;;;5014134;28;20192;-64
2021/04/13 05:43:43;;;;;;;22.30;15.13;;;0.00;99.90;;;;;;5014194;28;20676;-64
2021/04/13 05:46:13;;;;;;;19.52;13.80;;;0.10;99.90;;;;;;5014005;28;20842;-64
2021/04/13 05:48:39;;;;;;;21.30;15.02;;;0.10;99.90;;;;;;5013750;28;20169;-65
2021/04/13 05:51:05;;;;;;;18.57;12.97;;;0.20;99.90;;;;;;5014171;28;20511;-65
2021/04/13 05:53:30;;;;;;;14.70;12.80;;;0.30;99.90;;;;;;5013951;28;20169;-65
2021/04/13 05:55:56;;;;;;;18.57;15.13;;;0.40;99.90;;;;;;5014179;28;20806;-65
2021/04/13 05:58:25;;;;;;;22.40;13.67;;;0.50;99.90;;;;;;5014010;28;20589;-65
2021/04/13 06:00:54;;;;;;;20.48;13.20;;;0.60;99.90;;;;;;5013732;28;20404;-65
2021/04/13 06:03:21;;;;;;;20.65;15.68;;;0.70;99.90;;;;;;5014150;28;20221;-65
2021/04/13 06:05:48;;;;;;;15.90;13.73;;;0.80;99.90;;;;;;5013949;28;20201;-65
2021/04/13 06:08:13;;;;;;;18.35;13.07;;;0.80;99.90;;;;;;5013355;28;20169;-65
2021/04/13 06:10:39;;;;;;;17.67;13.50;;;0.90;99.90;;;;;;5013796;28;20197;-65
2021/04/13 06:13:05;;;;;;;17.83;13.57;;;0.90;99.90;;;;;;5013728;28;20176;-65
2021/04/13 06:15:32;;;;;;;17.65;12.63;;;0.90;99.90;;;;;;5012177;28;20174;-67
2021/04/13 06:17:58;;;;;;;16.13;13.30;;;1.00;99.90;;;;;;5013244;28;20233;-65
2021/04/13 06:20:26;;;;;;;19.10;13.70;;;1.10;99.90;;;;;;5013363;28;20593;-64
2021/04/13 06:22:52;;;;;;;18.08;13.52;;;1.10;99.90;;;;;;5013619;28;20413;-64
2021/04/13 06:25:21;;;;;;;17.33;11.82;;;1.20;99.90;;;;;;5012296;28;20171;-64
2021/04/13 06:27:48;;;;;;;14.13;12.65;;;1.20;99.90;;;;;;5012706;28;20258;-65
2021/04/13 06:30:15;;;;;;;14.32;12.18;;;1.20;99.90;;;;;;5011693;28;20206;-65
2021/04/13 06:32:41;;;;;;;15.27;11.93;;;1.20;99.90;;;;;;5012951;28;20179;-64
2021/04/13 06:35:07;;;;;;;18.00;13.30;;;1.30;99.90;;;;;;5013717;28;20816;-63
2021/04/13 06:37:35;;;;;;;13.95;12.40;;;1.30;99.90;;;;;;5013281;28;20249;-64
2021/04/13 06:40:06;;;;;;;16.50;12.52;;;1.40;99.90;;;;;;5012904;28;20210;-64
2021/04/13 06:43:09;;;;;;;16.30;12.32;;;1.50;99.90;;;;;;5012886;28;20709;-64
2021/04/13 06:46:00;;;;;;;15.35;12.38;;;1.60;99.90;;;;;;4971966;28;20692;-64
2021/04/13 06:48:53;;;;;;;15.05;11.85;;;1.90;99.90;;;;;;4974750;28;20188;-64
2021/04/13 06:51:47;;;;;;;16.55;13.43;;;1.80;99.90;;;;;;5013188;28;20175;-64
2021/04/13 06:54:13;;;;;;;17.20;12.70;;;1.90;99.90;;;;;;4995411;28;20187;-64
2021/04/13 06:57:18;;;;;;;18.57;13.73;;;2.00;99.90;;;;;;5012941;28;20579;-64
2021/04/13 06:59:52;;;;;;;19.13;14.05;;;2.00;99.90;;;;;;5006522;28;20224;-64
2021/04/13 07:02:43;;;;;;;18.57;13.70;;;2.10;99.90;;;;;;5014166;28;20169;-64
2021/04/13 07:05:27;;;;;;;13.60;11.90;;;2.10;99.90;;;;;;5013559;28;20760;-64
2021/04/13 07:07:57;;;;;;;16.27;13.02;;;2.10;99.90;;;;;;5013938;28;20886;-64
2021/04/13 07:10:28;;;;;;;17.10;11.57;;;2.10;99.90;;;;;;5013277;28;20189;-64
2021/04/13 07:13:18;;;;;;;14.47;12.80;;;2.20;99.90;;;;;;5014160;28;20180;-64
2021/04/13 07:15:46;;;;;;;16.58;11.55;;;2.20;99.90;;;;;;5013103;28;20650;-65
2021/04/13 07:18:44;;;;;;;15.90;11.63;;;2.40;99.90;;;;;;5012601;28;20283;-61
2021/04/13 07:21:21;;;;;;;12.77;10.27;;;2.50;99.90;;;;;;5013202;28;21065;-66
2021/04/13 07:23:59;;;;;;;16.90;12.30;;;2.60;99.90;;;;;;5014286;28;20182;-64
2021/04/13 07:26:40;;;;;;;18.87;13.57;;;2.70;99.90;;;;;;5014337;28;20414;-66
2021/04/13 07:29:18;;;;;;;19.83;13.03;;;2.80;99.90;;;;;;5013037;28;20435;-64
2021/04/13 07:32:07;;;;;;;15.87;11.20;;;2.90;99.90;;;;;;5014333;28;20484;-65
2021/04/13 07:34:39;;;;;;;14.30;12.80;;;2.80;99.90;;;;;;5013455;28;20489;-64
2021/04/13 07:37:32;;;;;;;16.77;11.40;;;2.90;99.90;;;;;;5014088;28;20408;-66
2021/04/13 07:40:04;;;;;;;15.13;11.67;;;2.90;99.90;;;;;;5012886;28;20430;-65
2021/04/13 07:42:37;;;;;;;13.53;10.93;;;3.00;99.90;;;;;;5013759;28;20611;-65
2021/04/13 07:45:02;;;;;;;29.80;17.97;;;3.00;99.90;;;;;;5013390;28;20916;-66
2021/04/13 07:47:46;;;;;;;17.20;13.80;;;3.00;99.90;;;;;;5012951;28;20416;-65
2021/04/13 07:50:14;;;;;;;10.83;7.90;;;3.10;99.90;;;;;;5013289;28;20200;-65
2021/04/13 07:52:56;;;;;;;10.90;8.90;;;3.10;99.90;;;;;;5013670;28;20415;-66
2021/04/13 07:55:41;;;;;;;9.23;8.00;;;3.20;99.90;;;;;;5014527;28;20415;-65
2021/04/13 07:58:16;;;;;;;11.00;8.40;;;3.30;99.90;;;;;;5011953;28;20542;-64
2021/04/13 08:00:50;;;;;;;9.17;7.37;;;3.40;99.90;;;;;;5012094;28;20431;-66
2021/04/13 08:03:28;;;;;;;8.77;6.97;;;3.50;99.90;;;;;;5012349;28;20418;-65
2021/04/13 08:05:56;;;;;;;8.03;7.30;;;3.70;99.90;;;;;;5013052;28;20448;-65
2021/04/13 08:08:32;;;;;;;16.43;8.30;;;3.90;99.90;;;;;;5012004;28;20428;-66
2021/04/13 08:11:20;;;;;;;8.47;7.70;;;4.00;99.90;;;;;;5012129;28;20408;-65
2021/04/13 08:13:49;;;;;;;8.73;7.60;;;4.20;99.90;;;;;;5012911;28;20404;-65
2021/04/13 08:16:31;;;;;;;9.57;6.90;;;4.40;99.90;;;;;;5013855;28;20955;-65
2021/04/13 08:19:24;;;;;;;10.57;7.30;;;4.60;99.90;;;;;;5012531;28;20470;-66
2021/04/13 08:22:05;;;;;;;10.60;8.47;;;4.80;99.90;;;;;;5013017;28;20427;-66
2021/04/13 08:24:36;;;;;;;10.87;7.30;;;4.80;99.90;;;;;;5013402;28;20404;-66
2021/04/13 08:27:23;;;;;;;12.63;9.90;;;4.90;99.90;;;;;;5013248;28;20401;-65
2021/04/13 08:30:02;;;;;;;11.00;7.57;;;5.00;99.90;;;;;;5012276;28;20453;-65
2021/04/13 08:35:15;;;;;;;9.53;7.57;;;4.90;99.00;;;;;;5013081;28;20970;-65
2021/04/13 08:37:51;;;;;;;8.23;7.40;;;4.80;99.40;;;;;;5012596;28;20822;-65
2021/04/13 08:40:54;;;;;;;7.60;6.30;;;4.80;99.30;;;;;;5011935;28;20427;-66
2021/04/13 08:43:27;;;;;;;20.90;7.63;;;4.80;98.90;;;;;;5011996;28;20411;-65
2021/04/13 08:46:35;;;;;;;9.70;8.37;;;5.10;99.70;;;;;;5012859;28;20401;-71
2021/04/13 08:49:19;;;;;;;9.87;7.30;;;5.40;99.20;;;;;;5011453;28;20416;-71
2021/04/13 08:51:48;;;;;;;8.20;7.50;;;5.60;98.40;;;;;;5011441;28;20408;-71
2021/04/13 08:54:29;;;;;;;9.20;8.50;;;5.60;97.60;;;;;;5012592;28;20400;-71
2021/04/13 08:56:56;;;;;;;8.53;6.87;;;5.50;97.40;;;;;;5015305;28;20435;-70
2021/04/13 08:59:34;;;;;;;6.70;5.20;;;5.40;97.60;;;;;;5014465;28;20456;-70
2021/04/13 09:02:20;;;;;;;5.37;4.87;;;5.30;97.20;;;;;;5014954;28;20458;-70
2021/04/13 09:04:46;;;;;;;5.27;4.83;;;5.30;96.60;;;;;;5014943;28;20415;-70
2021/04/13 09:07:23;;;;;;;8.27;4.60;;;5.30;96.50;;;;;;5014961;28;20404;-71
2021/04/13 09:09:53;;;;;;;4.67;4.27;;;5.30;96.10;;;;;;5014405;28;20563;-70
2021/04/13 09:12:24;;;;;;;4.93;4.43;;;5.50;96.30;;;;;;5015423;28;20771;-65
2021/04/13 09:15:00;;;;;;;9.07;5.07;;;5.50;96.00;;;;;;5015456;28;20415;-66
2021/04/13 09:17:57;;;;;;;7.30;5.07;;;5.60;96.40;;;;;;5015225;28;20451;-66
2021/04/13 09:20:45;;;;;;;5.50;5.00;;;6.30;98.60;;;;;;5016198;28;20432;-66
2021/04/13 09:23:28;;;;;;;4.60;4.30;;;6.60;96.30;;;;;;5016418;28;20503;-66
2021/04/13 09:26:04;;;;;;;6.93;4.93;;;6.90;95.20;;;;;;5016410;28;20768;-66
2021/04/13 09:29:02;;;;;;;10.83;5.07;;;6.90;99.90;;;;;;5015111;28;20405;-66
2021/04/13 09:31:44;;;;;;;8.60;6.60;;;6.80;94.60;;;;;;5003522;28;20424;-67
2021/04/13 09:34:28;;;;;;;8.80;7.30;;;6.60;95.10;;;;;;5015963;28;20411;-66
2021/04/13 09:36:56;;;;;;;7.70;6.87;;;6.40;95.30;;;;;;5016439;28;20424;-67
2021/04/13 09:39:49;;;;;;;7.43;6.70;;;6.30;95.50;;;;;;5014400;28;20854;-66
2021/04/13 09:42:44;;;;;;;5.90;5.27;;;6.40;95.50;;;;;;5014375;28;20433;-65
2021/04/13 09:45:28;;;;;;;6.13;5.47;;;6.30;94.40;;;;;;5014354;28;20487;-66
2021/04/13 09:48:28;;;;;;;6.67;4.40;;;7.00;95.70;;;;;;5014127;28;20408;-67
2021/04/13 09:51:10;;;;;;;10.33;6.97;;;7.60;94.80;;;;;;5002149;28;20796;-67
2021/04/13 09:54:06;;;;;;;6.63;5.40;;;8.10;93.80;;;;;;5014195;28;20406;-66
2021/04/13 09:56:35;;;;;;;10.00;5.20;;;8.00;93.30;;;;;;5014238;28;20436;-65
2021/04/13 09:59:09;;;;;;;5.60;5.10;;;7.80;92.40;;;;;;5013848;28;21015;-65
2021/04/13 10:01:54;;;;;;;5.07;4.67;;;7.60;92.10;;;;;;5014034;28;20418;-65
2021/04/13 10:04:38;;;;;;;5.40;4.90;;;7.50;91.80;;;;;;5013843;28;20906;-64
2021/04/13 10:08:02;;;;;;;4.30;3.90;;;7.30;92.40;;;;;;5012833;28;20412;-65
2021/04/13 10:10:54;;;;;;;5.03;4.70;;;7.20;92.50;;;;;;4985838;28;20555;-65
2021/04/13 10:13:35;;;;;;;6.87;6.17;;;7.20;91.80;;;;;;5013705;28;20408;-64
2021/04/13 10:16:03;;;;;;;7.23;6.60;;;7.50;94.30;;;;;;5013540;28;20496;-65
2021/04/13 10:18:52;;;;;;;6.67;6.17;;;7.60;92.60;;;;;;5013148;28;20456;-64
2021/04/13 10:21:39;;;;;;;5.83;5.23;;;7.70;92.30;;;;;;5013507;28;20461;-65
2021/04/13 10:24:20;;;;;;;7.93;5.83;;;7.50;91.70;;;;;;5013901;28;20777;-65
2021/04/13 10:26:59;;;;;;;16.17;5.67;;;7.30;92.00;;;;;;5013962;28;20401;-67
2021/04/13 10:30:13;;;;;;;9.20;4.90;;;7.20;91.60;;;;;;5013283;28;20427;-67
2021/04/13 10:32:57;;;;;;;5.10;4.57;;;7.40;92.80;;;;;;5014266;28;20408;-65
2021/04/13 10:35:52;;;;;;;9.10;4.00;;;8.10;93.30;;;;;;5015192;28;20408;-69
2021/04/13 10:38:45;;;;;;;3.80;3.50;;;8.70;87.30;;;;;;5013014;28;20465;-68
2021/04/13 10:41:42;;;;;;;5.70;3.43;;;9.20;86.80;;;;;;5015099;28;20421;-66
2021/04/13 10:44:52;;;;;;;4.53;4.13;;;9.50;86.10;;;;;;5014433;28;20418;-66
2021/04/13 10:47:32;;;;;;;6.53;3.20;;;9.50;84.30;;;;;;5013753;28;20898;-67
2021/04/13 10:50:24;;;;;;;3.40;3.20;;;9.50;85.80;;;;;;5013243;28;20935;-65
2021/04/13 10:53:02;;;;;;;4.80;3.17;;;9.20;83.80;;;;;;5014976;28;20408;-70
2021/04/13 10:56:03;;;;;;;3.27;3.03;;;9.00;82.90;;;;;;5015170;28;20779;-68
2021/04/13 10:59:06;;;;;;;8.20;3.40;;;8.60;83.90;;;;;;5013445;28;20463;-68
2021/04/13 11:01:46;;;;;;;3.80;3.50;;;8.50;85.00;;;;;;5013684;28;20398;-69
2021/04/13 11:04:41;;;;;;;3.50;3.20;;;8.60;84.70;;;;;;5014200;28;20399;-67
2021/04/13 11:07:41;;;;;;;4.17;3.87;;;8.80;88.40;;;;;;5008168;28;20423;-68
2021/04/13 11:10:45;;;;;;;4.33;3.70;;;9.60;91.30;;;;;;5012293;28;20541;-68
2021/04/13 11:13:35;;;;;;;4.57;4.10;;;10.90;91.80;;;;;;5012989;28;20418;-68
2021/04/13 11:16:35;;;;;;;3.40;3.10;;;11.50;86.90;;;;;;5017173;28;20502;-68
2021/04/13 11:19:06;;;;;;;3.33;3.20;;;11.60;79.60;;;;;;5022855;28;20467;-68
2021/04/13 11:22:06;;;;;;;3.90;3.50;;;11.60;80.00;;;;;;5017969;28;20431;-69
2021/04/13 11:24:54;;;;;;;4.50;3.90;;;11.20;77.30;;;;;;5023224;28;20409;-68
2021/04/13 11:27:47;;;;;;;4.03;3.83;;;10.90;75.50;;;;;;5020230;28;20401;-68
2021/04/13 11:30:42;;;;;;;4.13;3.13;;;10.40;77.10;;;;;;5020408;28;20754;-68
2021/04/13 11:33:14;;;;;;;3.80;2.70;;;10.00;76.20;;;;;;5020770;28;20400;-68
2021/04/13 11:35:42;;;;;;;3.23;3.03;;;9.80;78.10;;;;;;5016850;28;20401;-68
2021/04/13 11:38:20;;;;;;;3.90;3.23;;;10.10;80.60;;;;;;5015547;28;20456;-68
2021/04/13 11:41:02;;;;;;;4.40;2.90;;;10.40;77.00;;;;;;5013125;28;20523;-68
2021/04/13 11:43:32;;;;;;;3.40;2.90;;;11.70;87.40;;;;;;5014011;28;20901;-68
2021/04/13 11:46:06;;;;;;;8.03;3.67;;;12.50;81.10;;;;;;5020175;28;20415;-69
2021/04/13 11:48:34;;;;;;;3.67;3.47;;;12.60;76.80;;;;;;5025967;28;20417;-68
2021/04/13 11:51:21;;;;;;;4.43;4.13;;;12.60;72.40;;;;;;5014053;28;20414;-67
2021/04/13 11:53:50;;;;;;;2.70;2.50;;;12.30;66.50;;;;;;5015043;28;20447;-67
2021/04/13 11:56:21;;;;;;;3.60;2.87;;;12.40;75.50;;;;;;5015006;28;20425;-67
2021/04/13 11:59:12;;;;;;;4.20;3.63;;;12.80;76.80;;;;;;5013573;28;21089;-66
2021/04/13 12:01:40;;;;;;;3.97;3.77;;;13.20;77.70;;;;;;5015213;28;20415;-66
2021/04/13 12:04:09;;;;;;;4.23;3.10;;;13.20;71.90;;;;;;5015501;28;20479;-66
2021/04/13 12:06:55;;;;;;;3.43;3.23;;;13.00;71.20;;;;;;5015828;28;20439;-66
2021/04/13 12:09:49;;;;;;;3.67;3.37;;;13.60;76.20;;;;;;5015461;28;20464;-66
2021/04/13 12:12:30;;;;;;;3.13;2.93;;;14.00;72.90;;;;;;5017039;28;20502;-66
2021/04/13 12:14:57;;;;;;;2.80;2.70;;;15.00;73.90;;;;;;5016354;28;20420;-67
2021/04/13 12:17:29;;;;;;;4.27;3.23;;;15.50;71.40;;;;;;5014355;28;20764;-67
2021/04/13 12:20:20;;;;;;;3.70;3.33;;;16.10;72.70;;;;;;5014935;28;20431;-66
2021/04/13 12:22:45;;;;;;;2.90;2.80;;;16.10;62.50;;;;;;5016540;28;20396;-67
2021/04/13 12:25:40;;;;;;;3.87;3.53;;;15.60;61.30;;;;;;5016491;28;20467;-67
2021/04/13 12:28:15;;;;;;;4.30;3.43;;;16.00;69.80;;;;;;5016306;28;20268;-66
2021/04/13 12:30:40;;;;;;;3.40;3.20;;;15.90;66.10;;;;;;5017800;28;20435;-63
2021/04/13 12:33:07;;;;;;;6.53;3.67;;;16.30;65.50;;;;;;5018964;28;20423;-65
2021/04/13 12:35:50;;;;;;;4.07;3.30;;;16.80;61.50;;;;;;5016666;28;20578;-66
2021/04/13 12:38:49;;;;;;;3.30;3.17;;;17.00;65.40;;;;;;5016039;28;20470;-65
2021/04/13 12:41:30;;;;;;;4.23;3.43;;;17.10;61.80;;;;;;5016323;28;20782;-65
2021/04/13 12:44:22;;;;;;;5.03;3.70;;;17.50;64.10;;;;;;5016351;28;20404;-65
2021/04/13 12:46:49;;;;;;;3.53;3.33;;;17.60;62.40;;;;;;5016511;28;20507;-66
2021/04/13 12:49:15;;;;;;;3.53;3.43;;;17.30;56.80;;;;;;5015658;28;20424;-65
2021/04/13 12:52:05;;;;;;;5.03;3.20;;;17.30;58.30;;;;;;5016198;28;20920;-65
2021/04/13 12:54:36;;;;;;;4.53;4.00;;;16.80;55.90;;;;;;5016380;28;20169;-66
2021/04/13 12:57:05;;;;;;;4.23;3.93;;;16.60;58.60;;;;;;5015849;28;20400;-65
2021/04/13 12:59:32;;;;;;;3.90;3.80;;;16.00;55.80;;;;;;5015316;28;20452;-65
2021/04/13 13:01:59;;;;;;;4.10;3.73;;;15.50;56.00;;;;;;5017267;28;20416;-66
2021/04/13 13:04:42;;;;;;;3.43;3.23;;;14.70;54.40;;;;;;5022187;28;20765;-67
2021/04/13 13:07:20;;;;;;;3.50;3.30;;;14.30;54.00;;;;;;5020882;28;20408;-66
2021/04/13 13:09:47;;;;;;;3.13;2.87;;;13.90;55.00;;;;;;5017860;28;20426;-65
2021/04/13 13:12:19;;;;;;;3.20;3.00;;;13.60;57.40;;;;;;5019142;28;20459;-64
2021/04/13 13:14:47;;;;;;;5.40;3.07;;;13.40;54.70;;;;;;5014712;28;20400;-65
2021/04/13 13:17:32;;;;;;;3.73;3.13;;;13.30;56.10;;;;;;5014842;28;20474;-65
2021/04/13 13:19:58;;;;;;;6.00;5.60;;;12.90;55.90;;;;;;5014280;28;20424;-64
2021/04/13 13:22:29;;;;;;;4.27;3.30;;;12.60;55.50;;;;;;5015138;28;20495;-63
2021/04/13 13:24:56;;;;;;;4.97;4.00;;;12.70;57.40;;;;;;5014515;28;20392;-63
2021/04/13 13:27:24;;;;;;;3.77;3.47;;;12.50;58.20;;;;;;5014500;28;20400;-63
2021/04/13 13:29:50;;;;;;;13.27;9.80;;;12.50;58.00;;;;;;5014303;28;20415;-63
2021/04/13 13:32:18;;;;;;;14.10;9.63;;;12.70;58.10;;;;;;5014412;28;20905;-63